Detmold, Missouri
Current Conditions -  °F | °C
As of 11:55 PM on Sunday 25 Jan 2015 (Local Time) from KFYG Reporting Station
Overcast Overcast  
Wind Chill: 22°   Ceiling: 1600
Heat Index: 32°   Visibility: 10mi
Dew Point: 27°   Wind: 14mph
Humidity: 80%   Direction: 320°NW
Pressure: 30.04"   Gusts: 21mph
Location:  38.5502°N, 91.2585°W
Report Text: KFYG 260555Z AUTO 32012G18KT 10SM OVC016 00/M03 A3004 RMK AO2
Loading
Personal Weather Stations






























Interactive Weather Map New forecast layout! Learn more

10-Day Weather Forecast

Advertisements
Track Severe Weather on mobile